Hudson, Kansas
Current Conditions -  °F | °C
As of 3:15 AM on Saturday 22 Nov 2014 (Local Time) from KGBD Reporting Station
Overcast Overcast  
Wind Chill: 30°   Ceiling: 200
Heat Index: 37°   Visibility: 0.75mi
Dew Point: 34°   Wind: 10mph
Humidity: 87%   Direction: 190°S
Pressure: 29.99"   Gusts: NA
Location:  38.11°N, 98.66°W
Report Text: KGBD 220915Z AUTO 19009KT 3/4SM OVC002 03/01 A2999 RMK AO1
Loading
Personal Weather Stations






























Interactive Weather Map New forecast layout! Learn more

10-Day Weather Forecast

Advertisements
Track Severe Weather on mobile